sensor_id;sensor_type;location;lat;lon;timestamp;pressure;altitude;pressure_sealevel;temperature;humidity
47104;BME280;32853;52.164;5.400;2023-04-04T00:01:06;102989.94;;;5.47;66.95
47104;BME280;32853;52.164;5.400;2023-04-04T00:03:34;103016.09;;;5.61;66.32
47104;BME280;32853;52.164;5.400;2023-04-04T00:06:00;102759.25;;;3.95;67.10
47104;BME280;32853;52.164;5.400;2023-04-04T00:08:25;102905.16;;;4.90;67.88
47104;BME280;32853;52.164;5.400;2023-04-04T00:10:56;103002.88;;;5.44;70.42
47104;BME280;32853;52.164;5.400;2023-04-04T00:13:22;103001.16;;;5.45;70.10
47104;BME280;32853;52.164;5.400;2023-04-04T00:15:49;102999.13;;;5.29;70.79
47104;BME280;32853;52.164;5.400;2023-04-04T00:18:24;102975.91;;;5.35;70.61
47104;BME280;32853;52.164;5.400;2023-04-04T00:21:13;102990.59;;;5.34;71.34
47104;BME280;32853;52.164;5.400;2023-04-04T00:23:50;102985.28;;;5.28;71.03
47104;BME280;32853;52.164;5.400;2023-04-04T00:26:26;102984.56;;;5.37;70.92
47104;BME280;32853;52.164;5.400;2023-04-04T00:29:08;102932.13;;;5.02;73.23
47104;BME280;32853;52.164;5.400;2023-04-04T00:31:38;102960.25;;;5.32;75.04
47104;BME280;32853;52.164;5.400;2023-04-04T00:34:03;102961.91;;;5.25;73.92
47104;BME280;32853;52.164;5.400;2023-04-04T00:36:28;102980.19;;;5.33;74.88
47104;BME280;32853;52.164;5.400;2023-04-04T00:38:59;102976.72;;;5.32;76.36
47104;BME280;32853;52.164;5.400;2023-04-04T00:41:24;102959.88;;;5.09;76.76
47104;BME280;32853;52.164;5.400;2023-04-04T00:43:58;102961.81;;;5.20;78.11
47104;BME280;32853;52.164;5.400;2023-04-04T00:46:23;102946.91;;;5.07;77.24
47104;BME280;32853;52.164;5.400;2023-04-04T00:49:09;102921.63;;;4.95;78.20
47104;BME280;32853;52.164;5.400;2023-04-04T00:51:35;102988.84;;;5.33;77.15
47104;BME280;32853;52.164;5.400;2023-04-04T00:54:06;102989.59;;;5.26;78.73
47104;BME280;32853;52.164;5.400;2023-04-04T00:56:35;102927.72;;;4.97;80.47
47104;BME280;32853;52.164;5.400;2023-04-04T00:59:01;102983.53;;;5.25;79.38
47104;BME280;32853;52.164;5.400;2023-04-04T01:01:26;102960.69;;;5.05;80.23
47104;BME280;32853;52.164;5.400;2023-04-04T01:03:52;102960.81;;;5.11;81.65
47104;BME280;32853;52.164;5.400;2023-04-04T01:06:17;102984.25;;;5.18;81.89
47104;BME280;32853;52.164;5.400;2023-04-04T01:09:00;102974.88;;;5.25;82.22
47104;BME280;32853;52.164;5.400;2023-04-04T01:11:27;102963.47;;;5.15;82.41
47104;BME280;32853;52.164;5.400;2023-04-04T01:14:11;102981.78;;;5.24;82.87
47104;BME280;32853;52.164;5.400;2023-04-04T01:16:44;102942.56;;;5.06;81.45
47104;BME280;32853;52.164;5.400;2023-04-04T01:19:15;102874.44;;;4.63;82.43
47104;BME280;32853;52.164;5.400;2023-04-04T01:21:44;102971.50;;;5.31;83.10
47104;BME280;32853;52.164;5.400;2023-04-04T01:24:11;102918.16;;;4.93;83.00
47104;BME280;32853;52.164;5.400;2023-04-04T01:26:43;102906.00;;;4.89;84.91
47104;BME280;32853;52.164;5.400;2023-04-04T01:29:12;102979.03;;;5.15;84.43
47104;BME280;32853;52.164;5.400;2023-04-04T01:32:42;102976.50;;;5.20;86.03
47104;BME280;32853;52.164;5.400;2023-04-04T01:40:26;102946.06;;;5.10;85.14
47104;BME280;32853;52.164;5.400;2023-04-04T01:42:52;102943.19;;;4.91;86.17
47104;BME280;32853;52.164;5.400;2023-04-04T01:48:17;102976.50;;;5.20;89.31
47104;BME280;32853;52.164;5.400;2023-04-04T01:50:45;102966.81;;;5.10;86.57
47104;BME280;32853;52.164;5.400;2023-04-04T01:53:13;102973.91;;;5.20;87.78
47104;BME280;32853;52.164;5.400;2023-04-04T01:55:39;102977.34;;;5.17;88.07
47104;BME280;32853;52.164;5.400;2023-04-04T01:58:04;102986.88;;;5.20;87.75
47104;BME280;32853;52.164;5.400;2023-04-04T02:00:29;102950.38;;;5.08;85.84
47104;BME280;32853;52.164;5.400;2023-04-04T02:02:55;102952.09;;;5.07;87.09
47104;BME280;32853;52.164;5.400;2023-04-04T02:05:21;102972.06;;;5.11;87.31
47104;BME280;32853;52.164;5.400;2023-04-04T02:07:47;102925.72;;;4.81;90.25
47104;BME280;32853;52.164;5.400;2023-04-04T02:10:14;102966.56;;;4.94;90.19
47104;BME280;32853;52.164;5.400;2023-04-04T02:12:39;102977.91;;;5.00;87.86
47104;BME280;32853;52.164;5.400;2023-04-04T02:15:05;102957.84;;;4.89;89.81
47104;BME280;32853;52.164;5.400;2023-04-04T02:17:30;102927.94;;;4.60;89.93
47104;BME280;32853;52.164;5.400;2023-04-04T02:19:56;102977.44;;;4.75;91.21
47104;BME280;32853;52.164;5.400;2023-04-04T02:22:22;102989.69;;;4.82;92.30
47104;BME280;32853;52.164;5.400;2023-04-04T02:24:56;102971.09;;;4.58;92.27
47104;BME280;32853;52.164;5.400;2023-04-04T02:27:22;102934.47;;;4.41;90.73
47104;BME280;32853;52.164;5.400;2023-04-04T02:29:56;102939.53;;;4.33;90.46
47104;BME280;32853;52.164;5.400;2023-04-04T02:32:21;102980.78;;;4.68;93.27
47104;BME280;32853;52.164;5.400;2023-04-04T02:35:00;102958.22;;;4.64;93.86
47104;BME280;32853;52.164;5.400;2023-04-04T02:37:25;102931.56;;;4.23;96.93
47104;BME280;32853;52.164;5.400;2023-04-04T02:39:56;102951.03;;;4.48;96.12
47104;BME280;32853;52.164;5.400;2023-04-04T02:42:21;102959.94;;;4.63;95.17
47104;BME280;32853;52.164;5.400;2023-04-04T02:44:47;102941.84;;;4.65;94.96
47104;BME280;32853;52.164;5.400;2023-04-04T02:47:13;102923.31;;;4.44;95.03
47104;BME280;32853;52.164;5.400;2023-04-04T02:49:39;102964.44;;;4.72;94.56
47104;BME280;32853;52.164;5.400;2023-04-04T02:52:17;102927.88;;;4.57;96.09
47104;BME280;32853;52.164;5.400;2023-04-04T02:54:42;102927.72;;;4.48;97.04
47104;BME280;32853;52.164;5.400;2023-04-04T02:57:07;102954.75;;;4.62;95.71
47104;BME280;32853;52.164;5.400;2023-04-04T02:59:41;102898.84;;;4.29;95.51
47104;BME280;32853;52.164;5.400;2023-04-04T03:02:06;102954.78;;;4.65;95.83
47104;BME280;32853;52.164;5.400;2023-04-04T03:04:32;102909.16;;;4.26;94.01
47104;BME280;32853;52.164;5.400;2023-04-04T03:07:00;102932.69;;;4.37;96.91
47104;BME280;32853;52.164;5.400;2023-04-04T03:09:26;102960.69;;;4.56;97.48
47104;BME280;32853;52.164;5.400;2023-04-04T03:11:52;102923.06;;;4.31;96.73
47104;BME280;32853;52.164;5.400;2023-04-04T03:14:20;102901.34;;;4.23;97.36
47104;BME280;32853;52.164;5.400;2023-04-04T03:16:48;102963.97;;;4.48;98.52
47104;BME280;32853;52.164;5.400;2023-04-04T03:19:16;102942.53;;;4.55;97.53
47104;BME280;32853;52.164;5.400;2023-04-04T03:21:41;102953.88;;;4.61;96.58
47104;BME280;32853;52.164;5.400;2023-04-04T03:24:16;102965.97;;;4.61;97.74
47104;BME280;32853;52.164;5.400;2023-04-04T03:26:41;102944.16;;;4.50;98.24
47104;BME280;32853;52.164;5.400;2023-04-04T03:29:07;102951.25;;;4.60;98.87
47104;BME280;32853;52.164;5.400;2023-04-04T03:31:32;102871.81;;;4.14;99.29
47104;BME280;32853;52.164;5.400;2023-04-04T03:33:58;102944.13;;;4.48;98.08
47104;BME280;32853;52.164;5.400;2023-04-04T03:36:31;102944.97;;;4.47;97.95
47104;BME280;32853;52.164;5.400;2023-04-04T03:38:56;102942.88;;;4.29;100.00
47104;BME280;32853;52.164;5.400;2023-04-04T03:41:32;102899.63;;;4.24;100.00
47104;BME280;32853;52.164;5.400;2023-04-04T03:43:57;102945.63;;;4.35;99.23
47104;BME280;32853;52.164;5.400;2023-04-04T03:46:43;102937.94;;;4.42;97.56
47104;BME280;32853;52.164;5.400;2023-04-04T03:49:23;102936.84;;;4.30;98.89
47104;BME280;32853;52.164;5.400;2023-04-04T03:51:54;102940.25;;;4.26;100.00
47104;BME280;32853;52.164;5.400;2023-04-04T03:54:21;102943.63;;;4.22;100.00
47104;BME280;32853;52.164;5.400;2023-04-04T03:56:50;102943.03;;;4.35;100.00
47104;BME280;32853;52.164;5.400;2023-04-04T03:59:22;102938.75;;;4.39;100.00
47104;BME280;32853;52.164;5.400;2023-04-04T04:01:53;102918.50;;;4.18;100.00
47104;BME280;32853;52.164;5.400;2023-04-04T04:04:23;102921.75;;;4.09;100.00
47104;BME280;32853;52.164;5.400;2023-04-04T04:06:50;102944.41;;;4.20;100.00
47104;BME280;32853;52.164;5.400;2023-04-04T04:09:28;102948.66;;;4.15;100.00
47104;BME280;32853;52.164;5.400;2023-04-04T04:11:53;102888.09;;;3.66;100.00
47104;BME280;32853;52.164;5.400;2023-04-04T04:14:19;102944.78;;;3.96;100.00
47104;BME280;32853;52.164;5.400;2023-04-04T04:16:46;102879.25;;;3.56;100.00
47104;BME280;32853;52.164;5.400;2023-04-04T04:19:12;102960.38;;;3.99;100.00
47104;BME280;32853;52.164;5.400;2023-04-04T04:21:37;102891.34;;;3.57;100.00
47104;BME280;32853;52.164;5.400;2023-04-04T04:24:03;102788.31;;;2.99;100.00
47104;BME280;32853;52.164;5.400;2023-04-04T04:26:28;102878.25;;;3.51;100.00
47104;BME280;32853;52.164;5.400;2023-04-04T04:28:53;102955.34;;;4.05;100.00
47104;BME280;32853;52.164;5.400;2023-04-04T04:31:19;102932.34;;;3.78;100.00
47104;BME280;32853;52.164;5.400;2023-04-04T04:33:44;102875.84;;;3.59;100.00
47104;BME280;32853;52.164;5.400;2023-04-04T04:36:10;102959.47;;;3.97;100.00
47104;BME280;32853;52.164;5.400;2023-04-04T04:38:35;102959.34;;;3.89;100.00
47104;BME280;32853;52.164;5.400;2023-04-04T04:41:04;102960.25;;;3.91;100.00
47104;BME280;32853;52.164;5.400;2023-04-04T04:43:30;102879.72;;;3.38;100.00
47104;BME280;32853;52.164;5.400;2023-04-04T04:45:55;102961.59;;;3.75;100.00
47104;BME280;32853;52.164;5.400;2023-04-04T04:48:32;102887.31;;;3.32;100.00
47104;BME280;32853;52.164;5.400;2023-04-04T04:51:05;102952.25;;;3.82;100.00
47104;BME280;32853;52.164;5.400;2023-04-04T04:53:37;102949.47;;;3.73;100.00
47104;BME280;32853;52.164;5.400;2023-04-04T04:56:03;102934.31;;;3.50;100.00
47104;BME280;32853;52.164;5.400;2023-04-04T04:58:29;102962.19;;;3.64;100.00
47104;BME280;32853;52.164;5.400;2023-04-04T05:00:59;102865.34;;;3.13;100.00
47104;BME280;32853;52.164;5.400;2023-04-04T05:03:24;102920.03;;;3.30;100.00
47104;BME280;32853;52.164;5.400;2023-04-04T05:05:50;102971.25;;;3.45;100.00
47104;BME280;32853;52.164;5.400;2023-04-04T05:08:16;102932.97;;;3.30;100.00
47104;BME280;32853;52.164;5.400;2023-04-04T05:10:43;102962.69;;;3.47;100.00
47104;BME280;32853;52.164;5.400;2023-04-04T05:13:09;102975.66;;;3.49;100.00
47104;BME280;32853;52.164;5.400;2023-04-04T05:15:35;102974.81;;;3.50;100.00
47104;BME280;32853;52.164;5.400;2023-04-04T05:18:01;102923.09;;;3.14;100.00
47104;BME280;32853;52.164;5.400;2023-04-04T05:20:26;102868.91;;;2.82;100.00
47104;BME280;32853;52.164;5.400;2023-04-04T05:22:52;102920.56;;;3.15;100.00
47104;BME280;32853;52.164;5.400;2023-04-04T05:25:43;102963.59;;;3.49;100.00
47104;BME280;32853;52.164;5.400;2023-04-04T05:28:08;102856.00;;;2.82;100.00
47104;BME280;32853;52.164;5.400;2023-04-04T05:30:34;102981.72;;;3.49;100.00
47104;BME280;32853;52.164;5.400;2023-04-04T05:32:59;102973.06;;;3.49;100.00
47104;BME280;32853;52.164;5.400;2023-04-04T05:35:24;102948.38;;;3.26;100.00
47104;BME280;32853;52.164;5.400;2023-04-04T05:37:50;102906.88;;;2.85;100.00
47104;BME280;32853;52.164;5.400;2023-04-04T05:40:15;102948.09;;;3.13;100.00
47104;BME280;32853;52.164;5.400;2023-04-04T05:42:41;102911.31;;;2.89;100.00
47104;BME280;32853;52.164;5.400;2023-04-04T05:45:07;102981.47;;;3.40;100.00
47104;BME280;32853;52.164;5.400;2023-04-04T05:47:32;102813.84;;;2.49;100.00
47104;BME280;32853;52.164;5.400;2023-04-04T05:49:58;102931.97;;;3.24;100.00
47104;BME280;32853;52.164;5.400;2023-04-04T05:52:23;102970.44;;;3.46;100.00
47104;BME280;32853;52.164;5.400;2023-04-04T05:54:49;102883.94;;;2.99;100.00
47104;BME280;32853;52.164;5.400;2023-04-04T05:57:15;102977.44;;;3.52;100.00
47104;BME280;32853;52.164;5.400;2023-04-04T05:59:43;102838.47;;;2.71;100.00
47104;BME280;32853;52.164;5.400;2023-04-04T06:02:09;102969.44;;;3.41;100.00
47104;BME280;32853;52.164;5.400;2023-04-04T06:04:34;102958.22;;;3.40;100.00
47104;BME280;32853;52.164;5.400;2023-04-04T06:07:00;102809.72;;;2.55;100.00
47104;BME280;32853;52.164;5.400;2023-04-04T06:09:50;102973.34;;;3.61;100.00
47104;BME280;32853;52.164;5.400;2023-04-04T06:12:15;102984.56;;;3.62;100.00
47104;BME280;32853;52.164;5.400;2023-04-04T06:14:41;102975.94;;;3.61;100.00
47104;BME280;32853;52.164;5.400;2023-04-04T06:17:11;102910.53;;;3.29;100.00
47104;BME280;32853;52.164;5.400;2023-04-04T06:19:37;102975.13;;;3.64;100.00
47104;BME280;32853;52.164;5.400;2023-04-04T06:22:20;102919.81;;;3.57;100.00
47104;BME280;32853;52.164;5.400;2023-04-04T06:24:46;102962.59;;;3.81;100.00
47104;BME280;32853;52.164;5.400;2023-04-04T06:27:17;102860.91;;;3.08;100.00
47104;BME280;32853;52.164;5.400;2023-04-04T06:29:57;102932.63;;;3.53;100.00
47104;BME280;32853;52.164;5.400;2023-04-04T06:32:22;102930.25;;;3.62;100.00
47104;BME280;32853;52.164;5.400;2023-04-04T06:34:47;102970.38;;;3.82;100.00
47104;BME280;32853;52.164;5.400;2023-04-04T06:37:13;102912.75;;;3.52;100.00
47104;BME280;32853;52.164;5.400;2023-04-04T06:39:46;102986.22;;;3.96;100.00
47104;BME280;32853;52.164;5.400;2023-04-04T06:42:11;102931.91;;;3.58;100.00
47104;BME280;32853;52.164;5.400;2023-04-04T06:44:37;102978.91;;;4.17;100.00
47104;BME280;32853;52.164;5.400;2023-04-04T06:47:02;102996.22;;;4.20;100.00
47104;BME280;32853;52.164;5.400;2023-04-04T06:49:28;102997.22;;;4.26;100.00
47104;BME280;32853;52.164;5.400;2023-04-04T06:51:53;102975.13;;;4.01;100.00
47104;BME280;32853;52.164;5.400;2023-04-04T06:54:19;102992.28;;;4.38;100.00
47104;BME280;32853;52.164;5.400;2023-04-04T06:56:57;102967.28;;;4.41;100.00
47104;BME280;32853;52.164;5.400;2023-04-04T06:59:23;102996.22;;;4.62;100.00
47104;BME280;32853;52.164;5.400;2023-04-04T07:02:01;102986.03;;;4.71;100.00
47104;BME280;32853;52.164;5.400;2023-04-04T07:04:27;102976.41;;;4.65;100.00
47104;BME280;32853;52.164;5.400;2023-04-04T07:06:52;102970.28;;;4.62;100.00
47104;BME280;32853;52.164;5.400;2023-04-04T07:09:18;102919.97;;;4.51;97.68
47104;BME280;32853;52.164;5.400;2023-04-04T07:11:44;102991.44;;;4.83;97.71
47104;BME280;32853;52.164;5.400;2023-04-04T07:14:09;102838.91;;;4.09;96.54
47104;BME280;32853;52.164;5.400;2023-04-04T07:16:36;102978.03;;;5.07;93.96
47104;BME280;32853;52.164;5.400;2023-04-04T07:19:04;102987.81;;;5.22;94.37
47104;BME280;32853;52.164;5.400;2023-04-04T07:21:34;102935.41;;;4.91;91.46
47104;BME280;32853;52.164;5.400;2023-04-04T07:23:59;102968.72;;;5.20;88.00
47104;BME280;32853;52.164;5.400;2023-04-04T07:26:28;102916.56;;;5.02;85.88
47104;BME280;32853;52.164;5.400;2023-04-04T07:28:53;102877.47;;;4.89;85.80
47104;BME280;32853;52.164;5.400;2023-04-04T07:31:18;102962.28;;;5.51;83.84
47104;BME280;32853;52.164;5.400;2023-04-04T07:33:47;102987.81;;;5.78;83.38
47104;BME280;32853;52.164;5.400;2023-04-04T07:36:12;102979.06;;;5.73;82.57
47104;BME280;32853;52.164;5.400;2023-04-04T07:38:38;102923.19;;;5.37;83.66
47104;BME280;32853;52.164;5.400;2023-04-04T07:41:03;102675.84;;;4.11;81.31
47104;BME280;32853;52.164;5.400;2023-04-04T07:43:28;102989.94;;;6.05;79.80
47104;BME280;32853;52.164;5.400;2023-04-04T07:45:54;102838.06;;;5.12;80.17
47104;BME280;32853;52.164;5.400;2023-04-04T07:48:23;102830.13;;;5.01;78.35
47104;BME280;32853;52.164;5.400;2023-04-04T07:50:51;102821.88;;;5.30;77.44
47104;BME280;32853;52.164;5.400;2023-04-04T07:53:18;102808.19;;;5.41;78.03
47104;BME280;32853;52.164;5.400;2023-04-04T07:55:43;102747.03;;;4.95;73.19
47104;BME280;32853;52.164;5.400;2023-04-04T07:58:15;102981.78;;;6.44;72.99
47104;BME280;32853;52.164;5.400;2023-04-04T08:00:40;102923.41;;;6.18;72.71
47104;BME280;32853;52.164;5.400;2023-04-04T08:03:05;102942.72;;;6.39;72.26
47104;BME280;32853;52.164;5.400;2023-04-04T08:05:31;102933.06;;;6.26;70.79
47104;BME280;32853;52.164;5.400;2023-04-04T08:07:59;102801.66;;;5.72;71.48
47104;BME280;32853;52.164;5.400;2023-04-04T08:10:28;102827.03;;;5.93;71.86
47104;BME280;32853;52.164;5.400;2023-04-04T08:12:53;102922.19;;;6.64;70.54
47104;BME280;32853;52.164;5.400;2023-04-04T08:15:21;102970.03;;;6.83;66.42
47104;BME280;32853;52.164;5.400;2023-04-04T08:17:50;102851.53;;;6.17;65.63
47104;BME280;32853;52.164;5.400;2023-04-04T08:20:21;102952.59;;;6.71;62.86
47104;BME280;32853;52.164;5.400;2023-04-04T08:22:54;102955.19;;;6.69;63.31
47104;BME280;32853;52.164;5.400;2023-04-04T08:25:28;102979.69;;;6.94;63.48
47104;BME280;32853;52.164;5.400;2023-04-04T08:27:54;102975.47;;;7.09;64.14
47104;BME280;32853;52.164;5.400;2023-04-04T08:30:19;102965.13;;;7.15;63.81
47104;BME280;32853;52.164;5.400;2023-04-04T08:32:47;102901.56;;;6.84;62.87
47104;BME280;32853;52.164;5.400;2023-04-04T08:35:15;102870.44;;;6.91;62.53
47104;BME280;32853;52.164;5.400;2023-04-04T08:37:44;102959.19;;;7.31;61.07
47104;BME280;32853;52.164;5.400;2023-04-04T08:40:13;102919.16;;;7.12;59.34
47104;BME280;32853;52.164;5.400;2023-04-04T08:42:40;102957.66;;;7.64;59.86
47104;BME280;32853;52.164;5.400;2023-04-04T08:45:12;102966.53;;;7.87;59.04
47104;BME280;32853;52.164;5.400;2023-04-04T08:47:42;102925.72;;;7.91;59.38
47104;BME280;32853;52.164;5.400;2023-04-04T08:50:08;102937.13;;;8.22;60.19
47104;BME280;32853;52.164;5.400;2023-04-04T08:52:34;102955.47;;;8.37;56.78
47104;BME280;32853;52.164;5.400;2023-04-04T08:55:03;102952.84;;;8.38;55.90
47104;BME280;32853;52.164;5.400;2023-04-04T08:57:30;102954.63;;;8.44;54.71
47104;BME280;32853;52.164;5.400;2023-04-04T08:59:57;102959.88;;;8.73;55.57
47104;BME280;32853;52.164;5.400;2023-04-04T09:02:47;102952.97;;;8.95;53.91
47104;BME280;32853;52.164;5.400;2023-04-04T09:05:14;102953.84;;;8.98;53.55
47104;BME280;32853;52.164;5.400;2023-04-04T09:07:42;102904.19;;;8.36;50.96
47104;BME280;32853;52.164;5.400;2023-04-04T09:10:20;102952.09;;;8.87;51.36
47104;BME280;32853;52.164;5.400;2023-04-04T09:12:47;102959.91;;;8.84;50.80
47104;BME280;32853;52.164;5.400;2023-04-04T09:15:13;102944.25;;;8.65;49.05
47104;BME280;32853;52.164;5.400;2023-04-04T09:17:39;102923.38;;;8.81;49.21
47104;BME280;32853;52.164;5.400;2023-04-04T09:20:39;102952.97;;;9.33;48.99
47104;BME280;32853;52.164;5.400;2023-04-04T09:23:16;102763.34;;;8.16;49.05
47104;BME280;32853;52.164;5.400;2023-04-04T09:25:53;102955.53;;;9.59;49.74
47104;BME280;32853;52.164;5.400;2023-04-04T09:28:20;102959.91;;;9.28;48.70
47104;BME280;32853;52.164;5.400;2023-04-04T09:30:52;102962.53;;;9.31;48.85
47104;BME280;32853;52.164;5.400;2023-04-04T09:33:25;102963.41;;;9.38;48.95
47104;BME280;32853;52.164;5.400;2023-04-04T09:35:53;102916.38;;;9.39;49.48
47104;BME280;32853;52.164;5.400;2023-04-04T09:38:38;102904.25;;;8.91;48.93
47104;BME280;32853;52.164;5.400;2023-04-04T09:41:07;102947.69;;;9.62;49.84
47104;BME280;32853;52.164;5.400;2023-04-04T09:43:38;102934.56;;;9.82;49.71
47104;BME280;32853;52.164;5.400;2023-04-04T09:46:06;102949.31;;;10.04;49.93
47104;BME280;32853;52.164;5.400;2023-04-04T09:48:33;102941.53;;;9.89;48.85
47104;BME280;32853;52.164;5.400;2023-04-04T09:51:03;102907.69;;;9.36;49.00
47104;BME280;32853;52.164;5.400;2023-04-04T09:53:33;102933.75;;;9.69;50.13
47104;BME280;32853;52.164;5.400;2023-04-04T09:56:00;102920.53;;;10.12;48.38
47104;BME280;32853;52.164;5.400;2023-04-04T09:58:28;102942.13;;;10.54;49.84
47104;BME280;32853;52.164;5.400;2023-04-04T10:01:00;102916.09;;;10.31;48.22
47104;BME280;32853;52.164;5.400;2023-04-04T10:03:40;102872.63;;;10.02;47.95
47104;BME280;32853;52.164;5.400;2023-04-04T10:06:08;102926.69;;;9.86;47.97
47104;BME280;32853;52.164;5.400;2023-04-04T10:08:37;102924.13;;;9.88;46.96
47104;BME280;32853;52.164;5.400;2023-04-04T10:11:05;102891.78;;;10.09;48.19
47104;BME280;32853;52.164;5.400;2023-04-04T10:13:35;102925.56;;;10.53;48.42
47104;BME280;32853;52.164;5.400;2023-04-04T10:16:04;102922.84;;;10.64;46.99
47104;BME280;32853;52.164;5.400;2023-04-04T10:18:32;102923.63;;;10.80;46.94
47104;BME280;32853;52.164;5.400;2023-04-04T10:21:03;102873.47;;;10.07;47.81
47104;BME280;32853;52.164;5.400;2023-04-04T10:23:31;102923.56;;;10.89;47.19
47104;BME280;32853;52.164;5.400;2023-04-04T10:25:59;102918.19;;;11.05;46.74
47104;BME280;32853;52.164;5.400;2023-04-04T10:28:26;102905.44;;;10.64;46.95
47104;BME280;32853;52.164;5.400;2023-04-04T10:31:16;102902.97;;;10.37;47.07
47104;BME280;32853;52.164;5.400;2023-04-04T10:36:21;102889.72;;;10.61;46.58
47104;BME280;32853;52.164;5.400;2023-04-04T10:39:26;102898.94;;;11.11;45.72
47104;BME280;32853;52.164;5.400;2023-04-04T10:41:54;102902.94;;;11.47;45.98
47104;BME280;32853;52.164;5.400;2023-04-04T10:44:36;102900.31;;;11.49;44.82
47104;BME280;32853;52.164;5.400;2023-04-04T10:47:20;102896.94;;;11.36;44.38
47104;BME280;32853;52.164;5.400;2023-04-04T10:49:53;102893.31;;;11.48;45.08
47104;BME280;32853;52.164;5.400;2023-04-04T10:52:22;102884.72;;;12.12;44.58
47104;BME280;32853;52.164;5.400;2023-04-04T10:54:54;102834.09;;;11.34;43.28
47104;BME280;32853;52.164;5.400;2023-04-04T10:57:21;102864.91;;;11.10;44.03
47104;BME280;32853;52.164;5.400;2023-04-04T10:59:57;102881.56;;;11.85;44.85
47104;BME280;32853;52.164;5.400;2023-04-04T11:05:37;102876.22;;;12.55;43.65
47104;BME280;32853;52.164;5.400;2023-04-04T11:08:09;102865.59;;;12.64;42.64
47104;BME280;32853;52.164;5.400;2023-04-04T11:10:36;102822.03;;;11.93;41.96
47104;BME280;32853;52.164;5.400;2023-04-04T11:13:08;102874.88;;;12.26;44.16
47104;BME280;32853;52.164;5.400;2023-04-04T11:15:56;102863.16;;;12.50;42.00
47104;BME280;32853;52.164;5.400;2023-04-04T11:21:21;102856.78;;;12.08;42.04
47104;BME280;32853;52.164;5.400;2023-04-04T11:28:58;102855.25;;;12.53;42.59
47104;BME280;32853;52.164;5.400;2023-04-04T11:31:28;102859.03;;;12.34;43.01
47104;BME280;32853;52.164;5.400;2023-04-04T11:34:13;102846.84;;;12.84;41.34
47104;BME280;32853;52.164;5.400;2023-04-04T11:39:13;102848.88;;;13.20;42.32
47104;BME280;32853;52.164;5.400;2023-04-04T11:44:26;102838.53;;;13.96;43.24
47104;BME280;32853;52.164;5.400;2023-04-04T11:47:01;102844.44;;;14.07;40.83
47104;BME280;32853;52.164;5.400;2023-04-04T11:49:38;102826.50;;;13.44;41.02
47104;BME280;32853;52.164;5.400;2023-04-04T11:52:06;102831.25;;;13.25;41.26
47104;BME280;32853;52.164;5.400;2023-04-04T11:54:37;102828.50;;;13.31;41.82
47104;BME280;32853;52.164;5.400;2023-04-04T11:57:16;102764.03;;;13.57;43.39
47104;BME280;32853;52.164;5.400;2023-04-04T11:59:48;102814.22;;;13.85;42.15
47104;BME280;32853;52.164;5.400;2023-04-04T12:02:18;102778.06;;;12.63;41.87
47104;BME280;32853;52.164;5.400;2023-04-04T12:04:52;102823.25;;;13.73;41.99
47104;BME280;32853;52.164;5.400;2023-04-04T12:07:18;102769.59;;;13.43;42.12
47104;BME280;32853;52.164;5.400;2023-04-04T12:09:44;102818.63;;;13.86;41.39
47104;BME280;32853;52.164;5.400;2023-04-04T12:12:14;102805.53;;;14.21;41.42
47104;BME280;32853;52.164;5.400;2023-04-04T12:14:43;102803.63;;;13.89;42.05
47104;BME280;32853;52.164;5.400;2023-04-04T12:17:09;102796.19;;;14.08;41.52
47104;BME280;32853;52.164;5.400;2023-04-04T12:19:38;102792.88;;;14.71;41.65
47104;BME280;32853;52.164;5.400;2023-04-04T12:22:04;102792.88;;;14.71;40.53
47104;BME280;32853;52.164;5.400;2023-04-04T12:24:30;102791.88;;;14.77;40.97
47104;BME280;32853;52.164;5.400;2023-04-04T12:26:59;102786.09;;;14.63;40.71
47104;BME280;32853;52.164;5.400;2023-04-04T12:29:26;102790.22;;;14.73;39.37
47104;BME280;32853;52.164;5.400;2023-04-04T12:31:53;102779.28;;;14.88;38.81
47104;BME280;32853;52.164;5.400;2023-04-04T12:34:30;102782.03;;;14.49;38.97
47104;BME280;32853;52.164;5.400;2023-04-04T12:36:57;102786.69;;;14.74;39.50
47104;BME280;32853;52.164;5.400;2023-04-04T12:39:26;102734.47;;;14.21;39.13
47104;BME280;32853;52.164;5.400;2023-04-04T12:42:02;102774.25;;;14.79;38.93
47104;BME280;32853;52.164;5.400;2023-04-04T12:44:39;102735.50;;;13.38;38.39
47104;BME280;32853;52.164;5.400;2023-04-04T12:47:06;102774.16;;;13.74;39.02
47104;BME280;32853;52.164;5.400;2023-04-04T12:49:40;102764.53;;;14.11;39.49
47104;BME280;32853;52.164;5.400;2023-04-04T12:52:18;102760.72;;;13.47;39.75
47104;BME280;32853;52.164;5.400;2023-04-04T12:54:49;102760.84;;;13.43;38.94
47104;BME280;32853;52.164;5.400;2023-04-04T12:57:19;102693.78;;;13.63;41.33
47104;BME280;32853;52.164;5.400;2023-04-04T12:59:45;102762.84;;;14.07;39.11
47104;BME280;32853;52.164;5.400;2023-04-04T13:02:13;102758.50;;;14.06;39.63
47104;BME280;32853;52.164;5.400;2023-04-04T13:04:39;102744.84;;;14.63;41.27
47104;BME280;32853;52.164;5.400;2023-04-04T13:07:31;102752.75;;;14.63;39.08
47104;BME280;32853;52.164;5.400;2023-04-04T13:10:00;102603.53;;;13.61;39.58
47104;BME280;32853;52.164;5.400;2023-04-04T13:12:58;102744.00;;;13.50;40.27
47104;BME280;32853;52.164;5.400;2023-04-04T13:15:49;102741.84;;;14.06;40.33
47104;BME280;32853;52.164;5.400;2023-04-04T13:18:23;102668.75;;;13.83;41.03
47104;BME280;32853;52.164;5.400;2023-04-04T13:20:56;102677.28;;;13.57;41.06
47104;BME280;32853;52.164;5.400;2023-04-04T13:23:21;102702.03;;;13.47;41.31
47104;BME280;32853;52.164;5.400;2023-04-04T13:25:48;102730.69;;;13.59;41.39
47104;BME280;32853;52.164;5.400;2023-04-04T13:28:13;102701.22;;;13.82;40.66
47104;BME280;32853;52.164;5.400;2023-04-04T13:30:39;102700.84;;;13.99;41.08
47104;BME280;32853;52.164;5.400;2023-04-04T13:33:10;102708.66;;;13.63;40.58
47104;BME280;32853;52.164;5.400;2023-04-04T13:35:36;102697.22;;;14.03;41.98